TAF KMMH
KMMH 090520Z 0906/1006 16007KT P6SM SCT100 OVC140 FM090900 27011G20KT 5SM -SHSN BKN030 OVC060 WS020/23045KT FM091100 29008KT 1SM -SN BKN010 OVC020 WS020/23040KT FM091900 29015G25KT P6SM VCSH BKN035 FM100100 28012G20KT P6SM SCT040=
METAR KMMH
WC KMMH
WS KMMH
WV KMMH